Time;durP1;ratioP1;P1;durP2;ratioP2;P2;SDS_P1;SDS_P2;PMS_P1;PMS_P2;Temp;Humidity;BMP_temperature;BMP_pressure;BME280_temperature;BME280_humidity;BME280_pressure;Samples;Min_cycle;Max_cycle;Signal;HPM_P1;HPM_P2
2022/03/05 00:01:07;;;;;;;27.30;17.00;;;;;;;5.80;87.94;99295.06;5054789;28;20288;-67
2022/03/05 00:03:34;;;;;;;29.23;17.37;;;;;;;5.85;88.31;99306.91;5054739;28;20196;-67
2022/03/05 00:06:01;;;;;;;22.23;15.77;;;;;;;5.03;88.83;99199.41;5054693;28;20343;-67
2022/03/05 00:08:29;;;;;;;26.90;17.10;;;;;;;5.54;89.15;99308.94;5050631;28;20203;-67
2022/03/05 00:10:56;;;;;;;22.17;15.80;;;;;;;5.07;89.77;99246.75;5054288;28;20205;-67
2022/03/05 00:13:24;;;;;;;24.93;16.17;;;;;;;5.39;89.63;99299.81;5054482;28;20254;-69
2022/03/05 00:15:52;;;;;;;17.67;14.13;;;;;;;5.30;89.58;99275.31;5054433;28;20280;-67
2022/03/05 00:18:19;;;;;;;20.63;14.47;;;;;;;5.33;89.16;99278.69;5054618;28;20692;-67
2022/03/05 00:20:46;;;;;;;20.50;13.90;;;;;;;5.34;88.59;99298.16;5054467;28;20720;-68
2022/03/05 00:23:14;;;;;;;20.87;13.87;;;;;;;5.24;88.13;99297.41;5053022;28;20201;-67
2022/03/05 00:25:41;;;;;;;16.80;12.67;;;;;;;4.65;87.72;99202.31;5054414;28;20227;-67
2022/03/05 00:28:08;;;;;;;15.40;12.33;;;;;;;5.17;87.60;99298.34;5054476;28;20287;-67
2022/03/05 00:30:37;;;;;;;15.90;12.80;;;;;;;4.40;89.14;99207.63;5054436;28;20228;-68
2022/03/05 00:33:04;;;;;;;16.60;12.67;;;;;;;4.84;89.45;99278.34;5054270;28;20588;-67
2022/03/05 00:35:32;;;;;;;20.10;13.40;;;;;;;4.91;89.68;99296.03;5054087;28;20665;-67
2022/03/05 00:37:59;;;;;;;18.77;13.50;;;;;;;4.84;89.39;99284.28;5053861;28;20224;-67
2022/03/05 00:40:26;;;;;;;15.43;12.90;;;;;;;4.85;89.39;99285.94;5054250;28;20205;-67
2022/03/05 00:42:53;;;;;;;15.00;12.77;;;;;;;4.91;89.13;99290.16;5054141;28;20668;-67
2022/03/05 00:45:20;;;;;;;16.20;12.80;;;;;;;4.98;89.13;99292.59;5053829;28;20280;-67
2022/03/05 00:47:49;;;;;;;14.73;13.00;;;;;;;5.06;88.22;99290.00;5053942;28;20197;-67
2022/03/05 00:50:16;;;;;;;16.10;12.90;;;;;;;5.13;88.14;99292.47;5053863;28;20231;-67
2022/03/05 00:52:43;;;;;;;15.90;12.63;;;;;;;5.18;87.04;99292.41;5053954;28;20193;-67
2022/03/05 00:55:10;;;;;;;15.00;13.33;;;;;;;5.05;87.03;99265.44;5053858;28;20621;-67
2022/03/05 00:57:37;;;;;;;21.33;13.57;;;;;;;4.98;86.52;99257.03;5054099;28;20272;-68
2022/03/05 01:00:07;;;;;;;17.37;12.67;;;;;;;5.21;86.00;99294.91;5053710;28;20203;-67
2022/03/05 01:02:34;;;;;;;16.77;13.57;;;;;;;5.19;86.14;99292.41;5053704;28;20196;-67
2022/03/05 01:05:02;;;;;;;14.67;12.63;;;;;;;5.13;85.86;99282.31;5053543;28;20688;-67
2022/03/05 01:07:31;;;;;;;17.77;13.63;;;;;;;5.25;85.85;99299.94;5053380;28;20220;-67
2022/03/05 01:09:58;;;;;;;16.17;14.17;;;;;;;5.11;85.92;99276.38;5052768;28;20216;-68
2022/03/05 01:12:25;;;;;;;17.43;13.27;;;;;;;5.17;85.71;99278.84;5053379;28;20279;-68
2022/03/05 01:14:52;;;;;;;18.10;13.03;;;;;;;5.30;85.98;99295.66;5053615;28;20562;-68
2022/03/05 01:17:19;;;;;;;17.33;13.93;;;;;;;5.36;85.84;99299.84;5053276;28;20287;-67
2022/03/05 01:19:47;;;;;;;20.47;15.47;;;;;;;5.38;86.16;99295.56;5054153;28;20742;-67
2022/03/05 01:22:15;;;;;;;16.83;13.10;;;;;;;5.35;85.97;99299.84;5053072;28;20201;-67
2022/03/05 01:24:42;;;;;;;19.10;13.73;;;;;;;5.40;85.79;99305.72;5052886;28;20717;-67
2022/03/05 01:27:09;;;;;;;20.70;13.80;;;;;;;5.45;86.35;99320.06;5052728;28;20711;-67
2022/03/05 01:29:36;;;;;;;15.67;13.37;;;;;;;5.36;86.71;99288.84;5052876;28;20670;-67
2022/03/05 01:32:04;;;;;;;18.63;13.30;;;;;;;5.47;86.79;99310.72;5052720;28;20292;-68
2022/03/05 01:34:31;;;;;;;16.30;12.97;;;;;;;5.47;87.27;99313.25;5052630;28;20279;-67
2022/03/05 01:36:58;;;;;;;20.47;13.83;;;;;;;5.39;86.90;99288.78;5052617;28;20275;-67
2022/03/05 01:39:26;;;;;;;18.57;12.70;;;;;;;5.50;87.74;99307.28;5052674;28;20201;-67
2022/03/05 01:41:55;;;;;;;18.40;13.53;;;;;;;5.37;87.71;99281.19;5052523;28;20636;-67
2022/03/05 01:44:23;;;;;;;20.63;14.13;;;;;;;5.51;88.11;99298.81;5052388;28;20205;-67
2022/03/05 01:46:51;;;;;;;17.60;13.77;;;;;;;5.51;87.97;99294.59;5052239;28;20296;-67
2022/03/05 01:49:18;;;;;;;17.07;13.37;;;;;;;5.34;88.48;99267.66;5052197;28;20692;-67
2022/03/05 01:51:45;;;;;;;15.37;13.10;;;;;;;5.49;88.44;99295.47;5052115;28;20275;-67
2022/03/05 01:54:12;;;;;;;24.00;14.33;;;;;;;5.47;88.25;99292.09;5052556;28;20197;-67
2022/03/05 01:56:41;;;;;;;18.77;13.40;;;;;;;5.37;88.00;99281.19;5049843;28;20232;-67
2022/03/05 01:59:09;;;;;;;23.63;13.77;;;;;;;5.48;87.47;99306.47;5052797;28;20231;-67
2022/03/05 02:01:36;;;;;;;14.03;12.63;;;;;;;5.20;87.13;99262.75;5052347;28;20204;-67
2022/03/05 02:04:04;;;;;;;13.90;12.47;;;;;;;5.46;87.14;99308.22;5052756;28;20665;-67
2022/03/05 02:06:31;;;;;;;15.13;13.63;;;;;;;5.13;87.09;99256.03;5052248;28;20231;-68
2022/03/05 02:08:58;;;;;;;16.70;13.17;;;;;;;5.26;87.09;99276.22;5052387;28;20287;-67
2022/03/05 02:11:26;;;;;;;13.40;11.97;;;;;;;5.25;86.81;99277.09;5052433;28;20287;-67
2022/03/05 02:13:55;;;;;;;16.77;12.63;;;;;;;5.44;86.71;99304.81;5052389;28;20197;-67
2022/03/05 02:16:24;;;;;;;15.37;12.20;;;;;;;5.03;86.81;99245.13;5052053;28;20279;-67
2022/03/05 02:18:52;;;;;;;20.03;13.43;;;;;;;5.22;86.79;99288.97;5052085;28;20584;-67
2022/03/05 02:21:22;;;;;;;15.17;11.40;;;;;;;5.30;86.35;99305.81;5051958;28;20646;-68
2022/03/05 02:23:49;;;;;;;18.83;12.87;;;;;;;5.34;86.30;99313.41;5052176;28;20231;-67
2022/03/05 02:26:16;;;;;;;16.30;12.67;;;;;;;5.35;86.41;99312.56;5052290;28;20227;-67
2022/03/05 02:28:43;;;;;;;17.20;12.47;;;;;;;5.33;86.41;99296.50;5051880;28;20199;-67
2022/03/05 02:31:11;;;;;;;22.97;14.33;;;;;;;5.35;86.39;99303.25;5051946;28;20209;-67
2022/03/05 02:33:38;;;;;;;25.57;15.30;;;;;;;5.35;86.40;99302.41;5052058;28;20673;-67
2022/03/05 02:36:05;;;;;;;23.57;14.27;;;;;;;5.24;86.61;99289.78;5052047;28;20204;-67
2022/03/05 02:38:33;;;;;;;17.63;13.13;;;;;;;5.32;86.94;99307.50;5051615;28;20317;-67
2022/03/05 02:41:00;;;;;;;21.40;13.03;;;;;;;5.29;87.47;99309.25;5052027;28;20580;-67
2022/03/05 02:43:28;;;;;;;20.37;13.03;;;;;;;5.29;87.87;99309.25;5052170;28;20220;-67
2022/03/05 02:45:55;;;;;;;15.47;13.23;;;;;;;5.29;88.44;99313.47;5051547;28;20283;-67
2022/03/05 02:48:22;;;;;;;15.57;12.50;;;;;;;5.28;89.35;99317.72;5051933;28;20776;-67
2022/03/05 02:50:51;;;;;;;15.30;13.43;;;;;;;5.24;89.66;99316.03;5051645;28;20577;-67
2022/03/05 02:53:18;;;;;;;28.53;18.93;;;;;;;5.23;90.27;99319.44;5051557;28;20201;-67
2022/03/05 02:55:47;;;;;;;24.20;15.83;;;;;;;4.88;90.43;99262.25;5051529;28;20283;-67
2022/03/05 02:58:14;;;;;;;15.07;13.33;;;;;;;5.21;91.11;99311.00;5051660;28;20204;-67
2022/03/05 03:00:41;;;;;;;16.23;13.90;;;;;;;4.76;91.66;99240.31;5051723;28;20747;-67
2022/03/05 03:03:08;;;;;;;21.87;14.30;;;;;;;5.15;92.19;99308.53;5051403;28;20283;-69
2022/03/05 03:05:35;;;;;;;22.60;15.57;;;;;;;5.05;92.88;99303.53;5051599;28;20200;-67
2022/03/05 03:08:02;;;;;;;24.70;15.80;;;;;;;5.10;92.82;99310.28;5051136;28;20220;-67
2022/03/05 03:10:29;;;;;;;22.37;14.97;;;;;;;5.11;92.86;99316.19;5051667;28;20608;-67
2022/03/05 03:12:58;;;;;;;21.60;15.17;;;;;;;4.97;93.20;99303.63;5051337;28;20280;-67
2022/03/05 03:15:26;;;;;;;17.27;13.30;;;;;;;4.78;93.65;99273.34;5051606;28;20273;-67
2022/03/05 03:17:53;;;;;;;18.93;13.60;;;;;;;5.04;93.56;99317.94;5051447;28;20615;-67
2022/03/05 03:20:22;;;;;;;14.63;13.23;;;;;;;5.05;93.47;99324.72;5051163;28;20294;-67
2022/03/05 03:22:49;;;;;;;13.67;11.87;;;;;;;4.94;93.84;99310.44;5051013;28;20193;-67
2022/03/05 03:25:16;;;;;;;15.00;11.43;;;;;;;4.98;94.08;99323.06;5050619;28;20288;-67
2022/03/05 03:27:43;;;;;;;16.03;12.20;;;;;;;4.88;93.98;99306.22;5050719;28;20307;-67
2022/03/05 03:30:13;;;;;;;18.20;14.13;;;;;;;4.88;94.50;99326.53;5050763;28;20292;-67
2022/03/05 03:32:41;;;;;;;15.70;12.43;;;;;;;4.65;94.99;99303.06;5052676;28;20193;-67
2022/03/05 03:35:09;;;;;;;13.33;11.97;;;;;;;4.82;95.39;99326.59;5054876;28;20196;-67
2022/03/05 03:37:36;;;;;;;16.00;12.37;;;;;;;4.86;95.60;99338.44;5054723;28;20262;-67
2022/03/05 03:40:08;;;;;;;13.47;11.07;;;;;;;4.87;95.44;99345.19;5055102;28;20279;-67
2022/03/05 03:42:36;;;;;;;12.77;10.73;;;;;;;4.38;95.80;99262.66;5054605;28;20741;-67
2022/03/05 03:45:04;;;;;;;14.40;11.73;;;;;;;4.79;95.93;99339.31;5055146;28;20214;-67
2022/03/05 03:47:32;;;;;;;24.00;12.50;;;;;;;4.45;95.70;99279.53;5054758;28;20288;-67
2022/03/05 03:49:59;;;;;;;13.27;11.93;;;;;;;4.85;95.81;99346.88;5054975;28;20204;-67
2022/03/05 03:52:26;;;;;;;13.50;11.30;;;;;;;4.78;95.56;99344.44;5054471;28;20197;-67
2022/03/05 03:54:53;;;;;;;13.80;11.93;;;;;;;4.83;95.38;99347.75;5054606;28;20299;-68
2022/03/05 03:57:20;;;;;;;15.97;11.50;;;;;;;4.80;95.22;99351.19;5054493;28;20608;-67
2022/03/05 03:59:47;;;;;;;13.97;12.57;;;;;;;4.46;95.37;99311.69;5051820;28;20213;-67
2022/03/05 04:02:14;;;;;;;16.77;12.33;;;;;;;4.46;96.75;99349.75;5054416;28;20681;-68
2022/03/05 04:04:42;;;;;;;14.00;12.60;;;;;;;4.51;97.28;99355.63;5054537;28;20204;-67
2022/03/05 04:09:54;;;;;;;16.17;12.97;;;;;;;4.46;98.83;99357.38;5054847;28;20223;-67
2022/03/05 04:12:22;;;;;;;13.47;12.23;;;;;;;4.35;99.79;99359.09;5054578;28;20235;-68
2022/03/05 04:14:49;;;;;;;16.00;14.30;;;;;;;4.14;100.00;99315.25;5054982;28;20227;-67
2022/03/05 04:17:16;;;;;;;18.23;12.83;;;;;;;4.17;100.00;99316.91;5054830;28;20689;-67
2022/03/05 04:19:45;;;;;;;17.83;14.00;;;;;;;4.40;100.00;99352.28;5054935;28;20203;-67
2022/03/05 04:22:13;;;;;;;19.27;14.43;;;;;;;4.12;100.00;99304.28;5054812;28;20668;-67
2022/03/05 04:24:39;;;;;;;19.77;15.37;;;;;;;4.32;100.00;99334.59;5054354;28;20200;-67
2022/03/05 04:27:06;;;;;;;17.10;14.90;;;;;;;4.24;100.00;99332.09;5050827;28;20331;-67
2022/03/05 04:29:34;;;;;;;14.73;13.00;;;;;;;3.77;100.00;99247.84;5054409;28;20243;-67
2022/03/05 04:32:01;;;;;;;18.77;14.80;;;;;;;4.27;100.00;99321.09;5054839;28;20688;-67
2022/03/05 04:34:28;;;;;;;19.70;14.70;;;;;;;4.20;100.00;99304.25;5054286;28;20204;-67
2022/03/05 04:36:56;;;;;;;24.90;15.57;;;;;;;4.42;100.00;99358.22;5054336;28;20280;-67
2022/03/05 04:39:23;;;;;;;18.03;14.70;;;;;;;4.31;100.00;99332.06;5054070;28;20232;-68
2022/03/05 04:41:50;;;;;;;23.63;16.27;;;;;;;4.12;100.00;99308.50;5054049;28;20677;-67
2022/03/05 04:44:17;;;;;;;20.30;14.97;;;;;;;4.32;100.00;99339.69;5054210;28;20197;-67
2022/03/05 04:46:44;;;;;;;26.57;16.47;;;;;;;4.26;100.00;99347.31;5053796;28;20197;-67
2022/03/05 04:49:11;;;;;;;36.30;19.80;;;;;;;3.69;100.00;99259.69;5054181;28;20236;-67
2022/03/05 04:51:38;;;;;;;54.23;23.93;;;;;;;4.18;100.00;99341.44;5053939;28;20760;-67
2022/03/05 04:54:07;;;;;;;48.93;25.57;;;;;;;4.33;100.00;99355.75;5054178;28;20205;-67
2022/03/05 04:56:34;;;;;;;43.43;25.70;;;;;;;4.32;100.00;99354.06;5053934;28;20227;-67
2022/03/05 04:59:01;;;;;;;38.20;23.33;;;;;;;4.31;100.00;99353.22;5053816;28;20232;-67
2022/03/05 05:01:28;;;;;;;31.47;21.20;;;;;;;4.24;100.00;99332.09;5053644;28;20229;-67
2022/03/05 05:03:55;;;;;;;45.23;27.10;;;;;;;4.16;100.00;99333.84;5053550;28;20291;-68
2022/03/05 05:06:21;;;;;;;38.47;28.30;;;;;;;4.00;100.00;99308.56;5053743;28;20201;-67
2022/03/05 05:08:48;;;;;;;67.93;36.73;;;;;;;4.19;100.00;99351.59;5053313;28;20217;-67
2022/03/05 05:11:17;;;;;;;71.13;36.83;;;;;;;4.34;100.00;99368.41;5053693;28;20715;-67
2022/03/05 05:13:44;;;;;;;59.57;32.53;;;;;;;4.19;100.00;99341.44;5053304;28;20201;-67
2022/03/05 05:16:11;;;;;;;40.70;24.10;;;;;;;4.12;100.00;99329.63;5053638;28;20204;-67
2022/03/05 05:18:38;;;;;;;36.67;23.57;;;;;;;4.44;100.00;99381.88;5053416;28;20287;-67
2022/03/05 05:21:05;;;;;;;36.93;22.13;;;;;;;4.46;100.00;99385.28;5053540;28;20276;-67
2022/03/05 05:23:32;;;;;;;32.07;20.80;;;;;;;4.35;100.00;99361.66;5053526;28;20200;-67
2022/03/05 05:25:58;;;;;;;31.00;20.60;;;;;;;4.50;100.00;99385.22;5053049;28;20218;-67
2022/03/05 05:28:27;;;;;;;25.87;20.87;;;;;;;4.50;100.00;99385.22;5052745;28;20212;-67
2022/03/05 05:30:54;;;;;;;32.93;21.77;;;;;;;4.46;100.00;99367.50;5052880;28;20279;-67
2022/03/05 05:33:21;;;;;;;28.87;20.53;;;;;;;4.44;100.00;99364.13;5053178;28;20213;-67
2022/03/05 05:35:48;;;;;;;24.70;18.23;;;;;;;4.61;100.00;99395.34;5052599;28;20262;-69
2022/03/05 05:38:15;;;;;;;26.47;20.80;;;;;;;4.66;100.00;99396.13;5052757;28;20224;-67
2022/03/05 05:40:41;;;;;;;26.87;19.20;;;;;;;4.70;100.00;99402.88;5052800;28;20201;-67
2022/03/05 05:43:08;;;;;;;25.37;18.50;;;;;;;4.55;100.00;99373.38;5052894;28;20685;-67
2022/03/05 05:45:37;;;;;;;31.37;18.50;;;;;;;4.59;100.00;99389.41;5052961;28;20204;-67
2022/03/05 05:48:04;;;;;;;26.07;19.00;;;;;;;4.61;100.00;99382.63;5052598;28;20217;-67
2022/03/05 05:50:31;;;;;;;26.83;18.33;;;;;;;4.62;100.00;99390.22;5052425;28;20293;-67
2022/03/05 05:52:58;;;;;;;24.03;17.07;;;;;;;4.81;100.00;99426.53;5052504;28;20307;-67
2022/03/05 05:55:25;;;;;;;32.03;20.13;;;;;;;4.87;100.00;99426.47;5052036;28;20743;-67
2022/03/05 05:57:52;;;;;;;40.43;23.83;;;;;;;4.55;100.00;99380.13;5052296;28;20288;-67
2022/03/05 06:00:19;;;;;;;32.23;21.53;;;;;;;4.84;100.00;99428.19;5052052;28;20232;-67
2022/03/05 06:02:47;;;;;;;31.10;20.03;;;;;;;4.64;100.00;99402.94;5052882;28;20287;-67
2022/03/05 06:05:14;;;;;;;41.43;26.67;;;;;;;4.42;100.00;99376.00;5048516;28;20216;-67
2022/03/05 06:07:41;;;;;;;41.80;25.83;;;;;;;4.50;100.00;99404.69;5052764;28;20259;-67
2022/03/05 06:10:10;;;;;;;38.93;24.20;;;;;;;4.58;100.00;99405.50;5052475;28;20251;-68
2022/03/05 06:12:37;;;;;;;45.30;28.50;;;;;;;4.79;100.00;99443.44;5052419;28;20231;-67
2022/03/05 06:15:04;;;;;;;46.53;27.70;;;;;;;4.65;100.00;99400.34;5052358;28;20232;-67
2022/03/05 06:17:34;;;;;;;50.07;26.70;;;;;;;4.89;100.00;99445.06;5052329;28;20284;-67
2022/03/05 06:20:02;;;;;;;47.60;27.90;;;;;;;4.73;100.00;99426.56;5052232;28;20224;-68
2022/03/05 06:22:29;;;;;;;47.97;27.83;;;;;;;4.65;100.00;99410.50;5052169;28;20246;-67
2022/03/05 06:24:56;;;;;;;63.77;31.83;;;;;;;4.82;100.00;99434.97;5052242;28;20247;-68
2022/03/05 06:27:23;;;;;;;53.63;31.43;;;;;;;4.98;100.00;99450.09;5052212;28;20700;-67
2022/03/05 06:29:50;;;;;;;55.30;30.23;;;;;;;5.02;100.00;99456.84;5052176;28;20196;-67
2022/03/05 06:32:17;;;;;;;41.33;24.70;;;;;;;4.88;100.00;99424.78;5051966;28;20204;-67
2022/03/05 06:34:44;;;;;;;34.07;23.40;;;;;;;5.16;100.00;99462.69;5051920;28;20280;-67
2022/03/05 06:37:12;;;;;;;31.97;22.60;;;;;;;5.20;100.00;99460.97;5051981;28;20208;-67
2022/03/05 06:39:39;;;;;;;40.20;25.63;;;;;;;5.25;100.00;99465.16;5052061;28;20208;-68
2022/03/05 06:42:07;;;;;;;34.17;22.23;;;;;;;4.94;100.00;99397.66;5051712;28;20204;-68
2022/03/05 06:44:35;;;;;;;30.73;20.77;;;;;;;5.05;100.00;99411.09;5052007;28;20645;-67
2022/03/05 06:47:03;;;;;;;38.43;21.77;;;;;;;5.14;100.00;99430.47;5046399;28;20216;-67
2022/03/05 06:49:30;;;;;;;36.37;22.17;;;;;;;5.39;100.00;99474.34;5051768;28;20762;-68
2022/03/05 06:51:58;;;;;;;33.10;22.17;;;;;;;5.44;100.00;99475.16;5051791;28;20196;-67
2022/03/05 06:54:26;;;;;;;36.80;23.93;;;;;;;5.21;100.00;99440.59;5051608;28;20645;-67
2022/03/05 06:56:53;;;;;;;30.93;22.33;;;;;;;5.04;100.00;99404.31;5051661;28;20192;-67
2022/03/05 06:59:20;;;;;;;29.57;21.37;;;;;;;5.59;100.00;99478.41;5051783;28;20287;-67
2022/03/05 07:01:47;;;;;;;35.63;22.67;;;;;;;5.64;100.00;99488.53;5051502;28;20283;-67
2022/03/05 07:04:14;;;;;;;32.97;22.50;;;;;;;5.63;100.00;99486.84;5051662;28;20231;-67
2022/03/05 07:06:41;;;;;;;42.13;24.30;;;;;;;5.63;100.00;99490.22;5050685;28;20717;-67
2022/03/05 07:09:08;;;;;;;30.53;20.87;;;;;;;5.63;100.00;99487.69;5051460;28;20315;-67
2022/03/05 07:11:37;;;;;;;31.13;19.00;;;;;;;5.54;100.00;99471.69;5051334;28;20206;-67
2022/03/05 07:14:04;;;;;;;30.70;19.70;;;;;;;5.65;100.00;99496.16;5051896;28;20595;-67
2022/03/05 07:16:31;;;;;;;27.47;19.50;;;;;;;5.62;100.00;99497.91;5051582;28;20236;-67
2022/03/05 07:18:57;;;;;;;26.17;19.50;;;;;;;5.68;100.00;99495.28;5051584;28;20272;-68
2022/03/05 07:21:24;;;;;;;31.03;20.20;;;;;;;5.70;100.00;99496.09;5051480;28;20649;-68
2022/03/05 07:23:51;;;;;;;33.97;21.90;;;;;;;5.65;100.00;99480.06;5051328;28;20683;-68
2022/03/05 07:26:19;;;;;;;38.27;22.77;;;;;;;5.76;100.00;99499.44;5051771;28;20312;-68
2022/03/05 07:28:47;;;;;;;44.60;24.53;;;;;;;5.83;100.00;99508.72;5051005;28;20338;-68
2022/03/05 07:31:14;;;;;;;35.23;24.07;;;;;;;5.70;100.00;99498.66;5051417;28;20752;-67
2022/03/05 07:33:41;;;;;;;38.80;22.67;;;;;;;5.70;100.00;99494.41;5051230;28;20207;-68
2022/03/05 07:36:08;;;;;;;27.60;19.77;;;;;;;5.73;100.00;99504.56;5051408;28;20201;-67
2022/03/05 07:38:35;;;;;;;26.10;18.50;;;;;;;5.77;100.00;99505.38;5051389;28;20220;-68
2022/03/05 07:41:02;;;;;;;34.17;21.03;;;;;;;5.72;100.00;99484.22;5051098;28;20204;-68
2022/03/05 07:43:29;;;;;;;29.60;19.40;;;;;;;5.70;100.00;99473.22;5051274;28;20197;-68
2022/03/05 07:45:58;;;;;;;31.73;20.10;;;;;;;5.57;100.00;99438.59;5051151;28;20632;-68
2022/03/05 07:48:25;;;;;;;30.70;19.50;;;;;;;5.97;100.00;99495.88;5050949;28;20227;-67
2022/03/05 07:50:52;;;;;;;30.57;19.87;;;;;;;6.06;100.00;99503.44;5050719;28;20200;-69
2022/03/05 07:53:19;;;;;;;32.27;19.77;;;;;;;6.15;100.00;99502.47;5050994;28;20689;-68
2022/03/05 07:55:46;;;;;;;22.43;18.27;;;;;;;6.19;100.00;99504.13;5050816;28;20196;-67
2022/03/05 07:58:13;;;;;;;26.77;18.30;;;;;;;6.27;100.00;99508.28;5051487;28;20665;-67
2022/03/05 08:00:40;;;;;;;27.07;18.23;;;;;;;6.36;100.00;99507.34;5050703;28;20197;-67
2022/03/05 08:03:09;;;;;;;25.23;18.63;;;;;;;6.38;100.00;99500.53;5051151;28;20697;-68
2022/03/05 08:05:36;;;;;;;19.93;16.23;;;;;;;6.09;100.00;99477.94;5050552;28;20197;-67
2022/03/05 08:08:03;;;;;;;24.53;19.93;;;;;;;5.94;100.00;99441.66;5050419;28;20252;-68
2022/03/05 08:10:30;;;;;;;25.03;18.53;;;;;;;5.74;100.00;99435.03;5051269;28;20200;-67
2022/03/05 08:12:57;;;;;;;29.73;17.57;;;;;;;6.27;100.00;99504.88;5050515;28;20267;-68
2022/03/05 08:15:24;;;;;;;23.07;18.30;;;;;;;6.38;100.00;99505.63;5050503;28;20270;-67
2022/03/05 08:17:56;;;;;;;25.63;19.03;;;;;;;6.22;100.00;99448.94;5050813;28;20295;-68
2022/03/05 08:20:26;;;;;;;28.43;19.63;;;;;;;6.54;100.00;99496.09;5054105;28;20623;-67
2022/03/05 08:22:55;;;;;;;26.67;19.00;;;;;;;6.61;100.00;99492.59;5054083;28;20200;-68
2022/03/05 08:25:23;;;;;;;31.70;18.90;;;;;;;6.69;100.00;99495.88;5054121;28;20193;-67
2022/03/05 08:27:50;;;;;;;28.87;19.83;;;;;;;6.75;100.00;99503.47;5054337;28;20228;-68
2022/03/05 08:30:17;;;;;;;40.47;23.77;;;;;;;6.81;100.00;99495.75;5053535;28;20197;-68
2022/03/05 08:32:45;;;;;;;33.23;21.07;;;;;;;6.73;100.00;99487.34;5054127;28;20283;-68
2022/03/05 08:35:13;;;;;;;33.63;21.37;;;;;;;6.78;100.00;99490.69;5053903;28;20197;-68
2022/03/05 08:37:42;;;;;;;35.20;22.13;;;;;;;6.95;100.00;99504.00;5054611;28;20663;-68
2022/03/05 08:40:11;;;;;;;31.70;20.63;;;;;;;6.88;100.00;99507.53;5054249;28;20653;-68
2022/03/05 08:42:38;;;;;;;37.27;23.73;;;;;;;6.98;100.00;99509.06;5053959;28;20284;-68
2022/03/05 08:45:06;;;;;;;32.83;21.53;;;;;;;6.85;100.00;99479.53;5053779;28;20292;-69
2022/03/05 08:47:33;;;;;;;77.40;38.93;;;;;;;6.79;100.00;99469.41;5053448;28;20284;-68
2022/03/05 08:50:00;;;;;;;43.33;23.83;;;;;;;6.65;100.00;99468.78;5053593;28;20251;-68
2022/03/05 08:52:28;;;;;;;45.10;26.60;;;;;;;6.89;100.00;99519.38;5053299;28;20211;-68
2022/03/05 08:54:57;;;;;;;46.97;27.07;;;;;;;6.73;100.00;99489.88;5053377;28;20205;-68
2022/03/05 08:57:24;;;;;;;35.73;23.43;;;;;;;6.59;100.00;99474.78;5053409;28;20209;-68
2022/03/05 08:59:51;;;;;;;43.23;23.93;;;;;;;6.81;100.00;99516.13;5053232;28;20251;-68
2022/03/05 09:02:17;;;;;;;36.93;23.03;;;;;;;6.80;100.00;99504.22;5053501;28;20220;-68
2022/03/05 09:04:44;;;;;;;38.23;24.00;;;;;;;6.97;100.00;99520.16;5053555;28;20196;-68
2022/03/05 09:07:11;;;;;;;38.00;25.10;;;;;;;6.92;100.00;99523.59;5053484;28;20225;-68
2022/03/05 09:09:38;;;;;;;43.03;26.67;;;;;;;6.71;100.00;99486.53;5052816;28;20214;-67
2022/03/05 09:12:08;;;;;;;36.30;23.93;;;;;;;6.90;100.00;99526.19;5053205;28;20208;-68
2022/03/05 09:14:35;;;;;;;39.63;25.97;;;;;;;6.88;100.00;99527.91;5052713;28;20338;-68
2022/03/05 09:17:02;;;;;;;40.50;26.00;;;;;;;6.95;100.00;99526.94;5053044;28;20197;-68
2022/03/05 09:19:29;;;;;;;43.17;26.80;;;;;;;7.00;100.00;99526.91;5053197;28;20287;-68
2022/03/05 09:21:55;;;;;;;40.27;25.57;;;;;;;6.81;100.00;99528.84;5052760;28;20200;-68
2022/03/05 09:24:22;;;;;;;41.43;25.23;;;;;;;6.56;100.00;99491.84;5053131;28;20200;-68
2022/03/05 09:26:49;;;;;;;46.80;28.03;;;;;;;6.53;100.00;99467.22;5051436;28;20197;-69
2022/03/05 09:29:19;;;;;;;43.40;26.67;;;;;;;6.79;100.00;99513.56;5052315;28;20251;-68
2022/03/05 09:31:46;;;;;;;41.17;27.47;;;;;;;6.98;100.00;99529.44;5051937;28;20614;-68
2022/03/05 09:34:13;;;;;;;35.30;24.90;;;;;;;6.74;100.00;99496.66;5052842;28;20223;-68
2022/03/05 09:36:40;;;;;;;43.47;27.40;;;;;;;6.76;100.00;99492.38;5052508;28;20197;-68
2022/03/05 09:39:07;;;;;;;43.63;28.90;;;;;;;6.94;100.00;99517.63;5052454;28;20681;-68
2022/03/05 09:41:34;;;;;;;49.13;33.40;;;;;;;6.91;100.00;99512.59;5051557;28;20485;-61
2022/03/05 09:44:01;;;;;;;54.57;32.53;;;;;;;6.83;100.00;99534.75;5052265;28;20283;-61
2022/03/05 09:46:29;;;;;;;51.40;30.43;;;;;;;6.97;100.00;99532.88;5052262;28;20700;-61
2022/03/05 09:48:59;;;;;;;47.43;28.70;;;;;;;6.94;100.00;99538.03;5050888;28;20259;-61
2022/03/05 09:51:27;;;;;;;50.27;30.17;;;;;;;6.92;100.00;99539.72;5051685;28;20585;-61
2022/03/05 09:53:54;;;;;;;45.27;30.63;;;;;;;6.93;100.00;99546.53;5051750;28;20216;-62
2022/03/05 09:56:22;;;;;;;47.40;29.63;;;;;;;6.78;100.00;99541.63;5051894;28;20216;-62
2022/03/05 09:58:50;;;;;;;42.37;29.43;;;;;;;6.68;100.00;99537.50;5052215;28;20200;-61
2022/03/05 10:01:18;;;;;;;57.17;30.83;;;;;;;6.52;100.00;99533.47;5052065;28;20676;-61
2022/03/05 10:03:47;;;;;;;55.30;32.80;;;;;;;6.40;100.00;99529.34;5052010;28;20296;-61
2022/03/05 10:06:17;;;;;;;54.97;33.07;;;;;;;6.38;100.00;99540.41;5052168;28;20196;-61
2022/03/05 10:08:44;;;;;;;174.57;74.90;;;;;;;6.46;100.00;99539.47;5051791;28;20827;-61
2022/03/05 10:11:12;;;;;;;138.63;73.37;;;;;;;6.47;100.00;99537.75;5051804;28;20240;-61
2022/03/05 10:13:41;;;;;;;131.37;73.67;;;;;;;6.48;100.00;99539.44;5051656;28;20193;-61
2022/03/05 10:16:24;;;;;;;113.97;57.47;;;;;;;6.49;100.00;99543.69;5051689;28;20558;-61
2022/03/05 10:18:53;;;;;;;52.47;33.23;;;;;;;6.49;100.00;99543.69;5051492;28;20200;-61
2022/03/05 10:21:27;;;;;;;55.23;33.23;;;;;;;6.59;100.00;99538.44;5051897;28;20292;-61
2022/03/05 10:24:05;;;;;;;115.70;50.40;;;;;;;6.77;100.00;99539.94;5049030;28;20203;-61
2022/03/05 10:26:53;;;;;;;70.07;37.23;;;;;;;6.77;100.00;99524.66;5051208;28;20291;-62
2022/03/05 10:29:22;;;;;;;62.23;34.87;;;;;;;6.98;100.00;99529.44;5047973;28;20303;-61
2022/03/05 10:31:56;;;;;;;69.80;37.43;;;;;;;6.94;100.00;99512.53;5050748;28;20661;-61
2022/03/05 10:34:24;;;;;;;47.27;29.97;;;;;;;7.07;100.00;99516.59;5048217;28;20699;-61
2022/03/05 10:36:58;;;;;;;44.67;28.33;;;;;;;7.26;100.00;99518.03;5051574;28;20695;-62
2022/03/05 10:39:26;;;;;;;40.33;26.87;;;;;;;7.33;100.00;99519.59;5047969;28;20200;-61
2022/03/05 10:41:54;;;;;;;42.13;27.03;;;;;;;7.48;100.00;99520.22;5050475;28;20307;-61
2022/03/05 10:44:22;;;;;;;43.60;26.80;;;;;;;7.64;100.00;99516.56;5051266;28;20296;-61
2022/03/05 10:46:55;;;;;;;39.17;25.67;;;;;;;7.69;100.00;99504.59;5050293;28;20205;-61
2022/03/05 10:49:25;;;;;;;35.93;25.17;;;;;;;7.82;100.00;99513.69;5051067;28;20231;-62
2022/03/05 10:52:04;;;;;;;38.33;24.93;;;;;;;7.76;100.00;99495.94;5051131;28;20287;-61
2022/03/05 10:54:33;;;;;;;36.10;24.03;;;;;;;8.05;100.00;99514.13;5046507;28;20228;-61
2022/03/05 10:57:09;;;;;;;39.50;25.97;;;;;;;8.26;100.00;99508.66;5050858;28;20200;-61
2022/03/05 10:59:36;;;;;;;34.93;24.00;;;;;;;8.32;100.00;99510.25;5051207;28;20200;-60
2022/03/05 11:02:04;;;;;;;37.23;23.87;;;;;;;8.28;100.00;99512.03;5051049;28;20204;-60
2022/03/05 11:04:35;;;;;;;34.00;23.80;;;;;;;8.28;100.00;99511.19;5047293;28;20228;-61
2022/03/05 11:07:02;;;;;;;155.00;66.97;;;;;;;8.34;100.00;99504.25;5049957;28;20201;-60
2022/03/05 11:09:30;;;;;;;105.63;48.77;;;;;;;8.42;100.00;99504.94;5050727;28;20707;-60
2022/03/05 11:11:59;;;;;;;59.70;30.63;;;;;;;8.41;100.00;99503.25;5050566;28;20292;-61
2022/03/05 11:14:27;;;;;;;40.57;25.53;;;;;;;8.35;100.00;99493.16;5050783;28;20644;-60
2022/03/05 11:16:54;;;;;;;36.23;21.83;;;;;;;8.30;100.00;99464.31;5050756;28;20695;-60
2022/03/05 11:19:22;;;;;;;28.40;20.90;;;;;;;8.53;100.00;99491.13;5051224;28;20666;-60
2022/03/05 11:21:51;;;;;;;30.67;21.03;;;;;;;8.42;100.00;99481.13;5050971;28;20234;-60
2022/03/05 11:24:20;;;;;;;51.40;26.47;;;;;;;8.50;100.00;99475.88;5050909;28;20212;-59